createdAt,value
2019-02-25T00:00:21.772Z,5.60
2019-02-25T00:02:53.204Z,5.60
2019-02-25T00:05:25.800Z,5.80
2019-02-25T00:07:58.424Z,5.60
2019-02-25T00:10:30.358Z,5.80
2019-02-25T00:13:01.157Z,5.60
2019-02-25T00:15:34.874Z,5.70
2019-02-25T00:18:06.955Z,5.70
2019-02-25T00:20:39.780Z,5.60
2019-02-25T00:23:12.316Z,5.70
2019-02-25T00:25:42.929Z,5.80
2019-02-25T00:28:14.428Z,6.10
2019-02-25T00:30:46.391Z,6.00
2019-02-25T00:33:18.040Z,6.00
2019-02-25T00:35:49.450Z,6.10
2019-02-25T00:38:21.227Z,5.90
2019-02-25T00:40:54.916Z,6.10
2019-02-25T00:43:26.546Z,5.90
2019-02-25T00:45:57.906Z,6.10
2019-02-25T00:48:27.958Z,6.00
2019-02-25T00:50:57.562Z,5.80
2019-02-25T00:53:26.670Z,5.80
2019-02-25T00:55:58.132Z,5.90
2019-02-25T00:58:29.136Z,5.80
2019-02-25T01:01:02.850Z,5.80
2019-02-25T01:03:35.381Z,5.90
2019-02-25T01:06:06.238Z,6.00
2019-02-25T01:08:38.640Z,5.90
2019-02-25T01:11:12.333Z,6.10
2019-02-25T01:13:45.178Z,5.90
2019-02-25T01:16:16.408Z,5.80
2019-02-25T01:18:49.353Z,5.80
2019-02-25T01:21:22.215Z,5.70
2019-02-25T01:23:54.278Z,5.70
2019-02-25T01:26:25.852Z,5.80
2019-02-25T01:28:57.460Z,5.60
2019-02-25T01:31:30.950Z,5.70
2019-02-25T01:34:02.825Z,5.60
2019-02-25T01:36:33.246Z,5.70
2019-02-25T01:39:04.746Z,5.70
2019-02-25T01:41:37.889Z,5.60
2019-02-25T01:44:07.012Z,5.60
2019-02-25T01:46:37.005Z,5.60
2019-02-25T01:49:07.813Z,5.60
2019-02-25T01:51:39.880Z,5.50
2019-02-25T01:54:11.657Z,5.70
2019-02-25T01:56:44.411Z,5.80
2019-02-25T01:59:17.952Z,5.70
2019-02-25T02:01:50.380Z,5.60
2019-02-25T02:04:21.736Z,5.60
2019-02-25T02:06:56.520Z,5.70
2019-02-25T02:09:29.123Z,5.70
2019-02-25T02:12:01.558Z,5.60
2019-02-25T02:14:32.980Z,5.60
2019-02-25T02:17:07.591Z,5.60
2019-02-25T02:19:39.056Z,5.60
2019-02-25T02:22:11.113Z,5.60
2019-02-25T02:24:43.545Z,5.60
2019-02-25T02:27:14.563Z,5.50
2019-02-25T02:29:46.539Z,5.60
2019-02-25T02:32:18.649Z,5.60
2019-02-25T02:34:51.161Z,5.60
2019-02-25T02:37:32.809Z,5.60
2019-02-25T02:40:03.753Z,5.60
2019-02-25T02:42:35.972Z,5.60
2019-02-25T02:45:10.327Z,5.60
2019-02-25T02:47:47.532Z,5.60
2019-02-25T02:50:21.114Z,5.50
2019-02-25T02:52:53.107Z,5.50
2019-02-25T02:55:25.165Z,5.50
2019-02-25T02:57:57.150Z,5.50
2019-02-25T03:00:27.658Z,5.70
2019-02-25T03:02:59.418Z,5.70
2019-02-25T03:05:29.360Z,5.70
2019-02-25T03:08:02.469Z,5.60
2019-02-25T03:10:35.760Z,5.70
2019-02-25T03:13:10.305Z,5.80
2019-02-25T03:15:42.791Z,5.70
2019-02-25T03:18:12.588Z,6.00
2019-02-25T03:20:46.044Z,5.80
2019-02-25T03:23:17.165Z,5.80
2019-02-25T03:25:47.499Z,5.60
2019-02-25T03:28:19.495Z,5.70
2019-02-25T03:30:50.999Z,5.80
2019-02-25T03:33:23.324Z,5.70
2019-02-25T03:35:54.165Z,5.80
2019-02-25T03:38:25.147Z,5.70
2019-02-25T03:40:57.681Z,5.80
2019-02-25T03:43:29.261Z,5.80
2019-02-25T03:46:00.241Z,5.70
2019-02-25T03:48:29.809Z,5.70
2019-02-25T03:50:59.433Z,5.70
2019-02-25T03:53:30.075Z,5.70
2019-02-25T03:56:01.042Z,5.70
2019-02-25T03:58:33.444Z,5.70
2019-02-25T04:01:04.613Z,5.60
2019-02-25T04:03:34.658Z,5.70
2019-02-25T04:06:04.620Z,5.70
2019-02-25T04:08:36.944Z,5.70
2019-02-25T04:11:09.800Z,5.60
2019-02-25T04:13:40.336Z,5.60
2019-02-25T04:16:09.285Z,5.70
2019-02-25T04:18:38.528Z,5.60
2019-02-25T04:21:11.664Z,5.50
2019-02-25T04:23:43.125Z,5.50
2019-02-25T04:26:15.224Z,5.60
2019-02-25T04:28:46.076Z,5.60
2019-02-25T04:31:19.401Z,5.50
2019-02-25T04:33:52.489Z,5.50
2019-02-25T04:36:24.398Z,5.50
2019-02-25T04:38:55.373Z,5.60
2019-02-25T04:41:27.341Z,5.60
2019-02-25T04:44:01.098Z,5.60
2019-02-25T04:46:32.856Z,5.50
2019-02-25T04:49:04.153Z,5.40
2019-02-25T04:51:36.989Z,5.40
2019-02-25T04:54:06.829Z,5.30
2019-02-25T04:56:38.713Z,5.30
2019-02-25T04:59:10.633Z,5.40
2019-02-25T05:01:44.105Z,5.40
2019-02-25T05:04:15.829Z,5.40
2019-02-25T05:06:47.736Z,5.30
2019-02-25T05:09:20.090Z,5.30
2019-02-25T05:11:50.421Z,5.30
2019-02-25T05:14:22.158Z,5.30
2019-02-25T05:16:56.371Z,5.30
2019-02-25T05:19:27.459Z,5.20
2019-02-25T05:21:57.037Z,5.30
2019-02-25T05:24:25.800Z,5.30
2019-02-25T05:26:58.762Z,5.20
2019-02-25T05:29:32.170Z,5.30
2019-02-25T05:32:04.622Z,5.30
2019-02-25T05:34:35.462Z,5.30
2019-02-25T05:37:04.553Z,5.30
2019-02-25T05:39:35.444Z,5.30
2019-02-25T05:42:06.504Z,5.30
2019-02-25T05:44:36.788Z,5.30
2019-02-25T05:47:06.858Z,5.30
2019-02-25T05:49:36.116Z,5.40
2019-02-25T05:52:05.913Z,5.30
2019-02-25T05:54:35.861Z,5.20
2019-02-25T05:57:08.854Z,5.20
2019-02-25T05:59:40.532Z,5.30
2019-02-25T06:02:10.668Z,5.30
2019-02-25T06:04:41.832Z,5.30
2019-02-25T06:07:12.238Z,5.30
2019-02-25T06:09:43.799Z,5.30
2019-02-25T06:12:16.294Z,5.30
2019-02-25T06:14:47.867Z,5.20
2019-02-25T06:17:19.873Z,5.30
2019-02-25T06:19:52.534Z,5.30
2019-02-25T06:22:23.077Z,5.30
2019-02-25T06:24:53.057Z,5.20
2019-02-25T06:27:30.504Z,5.20
2019-02-25T06:29:57.864Z,5.30
2019-02-25T06:32:31.050Z,5.30
2019-02-25T06:35:02.939Z,5.30
2019-02-25T06:37:34.357Z,5.30
2019-02-25T06:40:04.301Z,5.30
2019-02-25T06:42:37.791Z,5.30
2019-02-25T06:45:12.440Z,5.40
2019-02-25T06:47:44.354Z,5.40
2019-02-25T06:50:26.088Z,5.50
2019-02-25T06:53:00.111Z,5.60
2019-02-25T06:55:30.832Z,5.70
2019-02-25T06:58:03.003Z,5.60
2019-02-25T07:00:32.592Z,5.50
2019-02-25T07:03:01.874Z,5.60
2019-02-25T07:05:55.325Z,5.60
2019-02-25T07:08:34.264Z,5.70
2019-02-25T07:11:20.848Z,5.70
2019-02-25T07:14:09.230Z,5.70
2019-02-25T07:17:07.255Z,5.60
2019-02-25T07:19:57.457Z,5.70
2019-02-25T07:22:45.063Z,5.80
2019-02-25T07:25:33.464Z,5.80
2019-02-25T07:28:23.785Z,5.80
2019-02-25T07:31:31.701Z,5.80
2019-02-25T07:34:38.271Z,5.80
2019-02-25T07:37:20.693Z,5.80
2019-02-25T07:40:18.739Z,5.90
2019-02-25T07:43:07.040Z,6.00
2019-02-25T07:46:00.911Z,6.00
2019-02-25T07:48:52.800Z,6.00
2019-02-25T07:51:48.042Z,6.10
2019-02-25T07:54:37.653Z,6.10
2019-02-25T07:57:24.665Z,6.20
2019-02-25T08:00:13.668Z,6.30
2019-02-25T08:03:10.940Z,6.30
2019-02-25T08:05:59.494Z,6.40
2019-02-25T08:08:48.105Z,6.40
2019-02-25T08:11:29.776Z,6.50
2019-02-25T08:14:25.756Z,6.60
2019-02-25T08:17:16.281Z,6.60
2019-02-25T08:20:00.953Z,6.60
2019-02-25T08:23:00.516Z,6.80
2019-02-25T08:26:10.154Z,6.70
2019-02-25T08:29:01.505Z,6.60
2019-02-25T08:31:53.330Z,6.60
2019-02-25T08:34:40.474Z,6.60
2019-02-25T08:37:45.304Z,6.60
2019-02-25T08:40:35.680Z,6.60
2019-02-25T08:43:18.536Z,6.60
2019-02-25T08:46:09.570Z,6.60
2019-02-25T08:48:49.201Z,6.50
2019-02-25T08:51:20.728Z,6.50
2019-02-25T08:53:51.575Z,6.60
2019-02-25T08:56:22.864Z,6.60
2019-02-25T08:58:56.544Z,6.60
2019-02-25T09:01:28.597Z,6.60
2019-02-25T09:03:59.610Z,6.50
2019-02-25T09:06:31.991Z,6.50
2019-02-25T09:09:02.533Z,6.50
2019-02-25T09:11:35.113Z,6.60
2019-02-25T09:14:08.036Z,6.60
2019-02-25T09:16:39.881Z,6.60
2019-02-25T09:19:11.913Z,6.80
2019-02-25T09:21:44.306Z,6.90
2019-02-25T09:24:15.910Z,7.10
2019-02-25T09:26:50.217Z,7.10
2019-02-25T09:29:24.142Z,7.10
2019-02-25T09:31:59.998Z,7.00
2019-02-25T09:34:33.641Z,7.00
2019-02-25T09:37:04.556Z,7.10
2019-02-25T09:39:39.817Z,7.10
2019-02-25T09:42:09.222Z,7.10
2019-02-25T09:44:39.149Z,7.10
2019-02-25T09:47:08.681Z,7.10
2019-02-25T09:49:38.800Z,7.10
2019-02-25T09:52:11.189Z,7.00
2019-02-25T09:54:43.325Z,7.10
2019-02-25T09:57:15.717Z,7.20
2019-02-25T09:59:48.346Z,7.20
2019-02-25T10:02:18.121Z,7.20
2019-02-25T10:04:48.959Z,7.30
2019-02-25T10:07:22.321Z,7.40
2019-02-25T10:09:55.381Z,7.50
2019-02-25T10:12:27.001Z,7.60
2019-02-25T10:14:57.350Z,7.60
2019-02-25T10:17:28.750Z,7.50
2019-02-25T10:20:02.381Z,7.50
2019-02-25T10:22:33.578Z,7.50
2019-02-25T10:25:06.126Z,7.50
2019-02-25T10:27:42.068Z,7.40
2019-02-25T10:30:14.089Z,7.40
2019-02-25T10:32:44.594Z,7.30
2019-02-25T10:35:15.079Z,7.30
2019-02-25T10:37:45.561Z,7.40
2019-02-25T10:40:15.962Z,7.50
2019-02-25T10:42:48.265Z,7.50
2019-02-25T10:45:18.859Z,7.50
2019-02-25T10:47:54.405Z,7.50
2019-02-25T10:50:23.193Z,7.60
2019-02-25T10:53:03.044Z,7.60
2019-02-25T10:55:26.701Z,7.60
2019-02-25T10:58:02.045Z,7.70
2019-02-25T11:00:35.230Z,7.70
2019-02-25T11:03:07.496Z,7.70
2019-02-25T11:05:41.126Z,7.70
2019-02-25T11:08:14.412Z,7.70
2019-02-25T11:10:55.924Z,7.60
2019-02-25T11:13:29.673Z,7.70
2019-02-25T11:16:01.040Z,7.70
2019-02-25T11:18:32.808Z,7.70
2019-02-25T11:21:06.161Z,7.80
2019-02-25T11:23:37.337Z,7.80
2019-02-25T11:26:09.389Z,7.80
2019-02-25T11:28:41.250Z,7.80
2019-02-25T11:31:15.279Z,7.90
2019-02-25T11:33:46.461Z,7.90
2019-02-25T11:36:20.203Z,7.90
2019-02-25T11:38:51.942Z,7.90
2019-02-25T11:41:24.074Z,7.90
2019-02-25T11:43:55.297Z,7.80
2019-02-25T11:46:28.460Z,7.80
2019-02-25T11:49:01.140Z,7.80
2019-02-25T11:51:33.033Z,7.70
2019-02-25T11:54:04.072Z,7.80
2019-02-25T11:56:35.957Z,7.70
2019-02-25T11:59:09.306Z,7.80
2019-02-25T12:01:40.050Z,7.70
2019-02-25T12:04:11.177Z,7.70
2019-02-25T12:06:42.661Z,7.70
2019-02-25T12:09:15.161Z,7.60
2019-02-25T12:11:46.018Z,7.60
2019-02-25T12:14:18.038Z,7.50
2019-02-25T12:16:51.375Z,7.60
2019-02-25T12:19:22.809Z,7.60
2019-02-25T12:21:54.853Z,7.60
2019-02-25T12:24:25.955Z,7.50
2019-02-25T12:26:56.133Z,7.60
2019-02-25T12:29:26.143Z,7.50
2019-02-25T12:31:57.202Z,7.50
2019-02-25T12:34:30.443Z,7.50
2019-02-25T12:37:04.969Z,7.50
2019-02-25T12:39:36.693Z,7.50
2019-02-25T12:42:10.577Z,7.40
2019-02-25T12:44:42.472Z,7.40
2019-02-25T12:47:12.713Z,7.30
2019-02-25T12:49:43.320Z,7.30
2019-02-25T12:52:15.570Z,7.30
2019-02-25T12:54:45.593Z,7.30
2019-02-25T12:57:18.139Z,7.40
2019-02-25T12:59:50.076Z,7.30
2019-02-25T13:02:21.867Z,7.30
2019-02-25T13:04:53.698Z,7.20
2019-02-25T13:07:23.409Z,7.20
2019-02-25T13:09:54.282Z,7.20
2019-02-25T13:12:24.784Z,7.10
2019-02-25T13:15:00.349Z,7.10
2019-02-25T13:17:31.765Z,7.20
2019-02-25T13:20:03.998Z,7.10
2019-02-25T13:22:34.805Z,7.20
2019-02-25T13:25:08.054Z,7.10
2019-02-25T13:27:41.257Z,7.10
2019-02-25T13:30:14.189Z,7.20
2019-02-25T13:32:45.480Z,7.20
2019-02-25T13:35:18.221Z,7.20
2019-02-25T13:37:51.050Z,7.20
2019-02-25T13:40:23.597Z,7.10
2019-02-25T13:42:55.705Z,7.00
2019-02-25T13:45:27.664Z,7.00
2019-02-25T13:48:00.236Z,6.90
2019-02-25T13:50:31.759Z,6.90
2019-02-25T13:53:04.136Z,6.80
2019-02-25T13:55:43.817Z,6.80
2019-02-25T13:58:16.138Z,6.80
2019-02-25T14:00:48.937Z,6.80
2019-02-25T14:03:22.379Z,6.80
2019-02-25T14:05:54.132Z,6.80
2019-02-25T14:08:26.253Z,6.80
2019-02-25T14:10:58.794Z,6.80
2019-02-25T14:13:33.318Z,6.80
2019-02-25T14:16:05.797Z,6.80
2019-02-25T14:18:38.941Z,6.80
2019-02-25T14:21:11.786Z,6.80
2019-02-25T14:23:44.937Z,6.80
2019-02-25T14:26:18.904Z,6.80
2019-02-25T14:28:48.701Z,6.70
2019-02-25T14:31:18.772Z,6.70
2019-02-25T14:33:52.086Z,6.60
2019-02-25T14:36:21.578Z,6.60
2019-02-25T14:38:56.390Z,6.60
2019-02-25T14:41:28.505Z,6.60
2019-02-25T14:43:59.504Z,6.60
2019-02-25T14:46:32.425Z,6.60
2019-02-25T14:49:02.150Z,6.60
2019-02-25T14:51:35.225Z,6.60
2019-02-25T14:54:08.767Z,6.50
2019-02-25T14:56:42.960Z,6.50
2019-02-25T14:59:17.464Z,6.50
2019-02-25T15:01:49.205Z,6.50
2019-02-25T15:04:20.235Z,6.60
2019-02-25T15:06:53.501Z,6.60
2019-02-25T15:09:24.844Z,6.50
2019-02-25T15:11:55.896Z,6.60
2019-02-25T15:14:25.900Z,6.60
2019-02-25T15:16:56.712Z,6.50
2019-02-25T15:19:32.526Z,6.50
2019-02-25T15:22:03.775Z,6.50
2019-02-25T15:24:39.341Z,6.40
2019-02-25T15:27:11.483Z,6.40
2019-02-25T15:29:44.101Z,6.40
2019-02-25T15:32:15.704Z,6.30
2019-02-25T15:34:48.588Z,6.30
2019-02-25T15:37:23.859Z,6.30
2019-02-25T15:39:55.938Z,6.20
2019-02-25T15:42:27.815Z,6.10
2019-02-25T15:44:58.184Z,6.10
2019-02-25T15:47:28.041Z,6.10
2019-02-25T15:49:59.716Z,6.10
2019-02-25T15:52:39.755Z,6.00
2019-02-25T15:55:05.068Z,6.00
2019-02-25T15:57:40.072Z,5.90
2019-02-25T16:00:13.750Z,5.90
2019-02-25T16:02:44.804Z,5.80
2019-02-25T16:05:17.781Z,5.70
2019-02-25T16:07:49.749Z,5.70
2019-02-25T16:10:22.185Z,5.60
2019-02-25T16:12:55.930Z,5.60
2019-02-25T16:15:25.019Z,5.60
2019-02-25T16:17:57.293Z,5.50
2019-02-25T16:20:32.519Z,5.50
2019-02-25T16:23:05.868Z,5.50
2019-02-25T16:25:37.129Z,5.40
2019-02-25T16:28:10.468Z,5.40
2019-02-25T16:30:40.471Z,5.20
2019-02-25T16:33:14.498Z,5.20
2019-02-25T16:35:47.051Z,5.30
2019-02-25T16:38:23.058Z,5.30
2019-02-25T16:40:54.720Z,5.30
2019-02-25T16:43:27.368Z,5.30
2019-02-25T16:45:59.468Z,5.30
2019-02-25T16:48:30.824Z,5.30
2019-02-25T16:51:02.711Z,5.30
2019-02-25T16:53:38.692Z,5.30
2019-02-25T16:56:14.177Z,5.30
2019-02-25T16:58:49.956Z,5.30
2019-02-25T17:01:25.803Z,5.40
2019-02-25T17:03:54.457Z,5.40
2019-02-25T17:06:28.183Z,5.40
2019-02-25T17:08:59.716Z,5.40
2019-02-25T17:11:31.395Z,5.40
2019-02-25T17:14:03.756Z,5.40
2019-02-25T17:16:34.942Z,5.40
2019-02-25T17:19:08.086Z,5.40
2019-02-25T17:21:42.874Z,5.40
2019-02-25T17:24:12.583Z,5.40
2019-02-25T17:26:43.761Z,5.40
2019-02-25T17:29:15.076Z,5.40
2019-02-25T17:31:44.754Z,5.40
2019-02-25T17:34:19.196Z,5.40
2019-02-25T17:36:52.786Z,5.40
2019-02-25T17:39:24.929Z,5.40
2019-02-25T17:41:57.342Z,5.30
2019-02-25T17:44:31.809Z,5.30
2019-02-25T17:47:06.545Z,5.30
2019-02-25T17:49:41.530Z,5.30
2019-02-25T17:52:14.150Z,5.30
2019-02-25T17:54:46.410Z,5.30
2019-02-25T17:57:17.629Z,5.30
2019-02-25T17:59:50.517Z,5.30
2019-02-25T18:02:22.362Z,5.30
2019-02-25T18:04:57.494Z,5.30
2019-02-25T18:07:29.252Z,5.20
2019-02-25T18:10:03.534Z,5.20
2019-02-25T18:12:38.932Z,5.20
2019-02-25T18:15:14.849Z,5.20
2019-02-25T18:17:51.316Z,5.20
2019-02-25T18:20:23.318Z,5.10
2019-02-25T18:22:56.504Z,5.10
2019-02-25T18:25:28.057Z,5.00
2019-02-25T18:28:06.402Z,5.10
2019-02-25T18:30:37.040Z,5.10
2019-02-25T18:33:09.468Z,5.10
2019-02-25T18:35:41.644Z,5.20
2019-02-25T18:38:10.274Z,5.10
2019-02-25T18:40:43.261Z,5.10
2019-02-25T18:43:13.687Z,5.20
2019-02-25T18:45:44.815Z,5.10
2019-02-25T18:48:21.086Z,5.10
2019-02-25T18:50:52.715Z,5.10
2019-02-25T18:53:25.057Z,5.10
2019-02-25T18:55:56.637Z,5.20
2019-02-25T18:58:25.636Z,5.20
2019-02-25T19:00:58.545Z,5.20
2019-02-25T19:03:30.691Z,5.20
2019-02-25T19:06:01.989Z,5.20
2019-02-25T19:08:33.111Z,5.20
2019-02-25T19:11:04.278Z,5.20
2019-02-25T19:13:35.593Z,5.30
2019-02-25T19:16:09.498Z,5.30
2019-02-25T19:18:43.066Z,5.20
2019-02-25T19:21:16.147Z,5.20
2019-02-25T19:23:48.599Z,5.20
2019-02-25T19:26:21.902Z,5.10
2019-02-25T19:28:54.703Z,5.10
2019-02-25T19:31:27.532Z,5.10
2019-02-25T19:34:00.880Z,5.10
2019-02-25T19:36:32.575Z,5.10
2019-02-25T19:39:07.267Z,5.10
2019-02-25T19:41:40.432Z,5.10
2019-02-25T19:44:12.748Z,5.00
2019-02-25T19:46:45.636Z,5.00
2019-02-25T19:49:20.311Z,5.00
2019-02-25T19:51:52.720Z,4.90
2019-02-25T19:54:24.778Z,4.80
2019-02-25T19:56:59.332Z,4.80
2019-02-25T19:59:31.133Z,4.80
2019-02-25T20:02:04.297Z,4.70
2019-02-25T20:04:37.751Z,4.70
2019-02-25T20:07:09.529Z,4.70
2019-02-25T20:09:41.181Z,4.70
2019-02-25T20:12:10.424Z,4.70
2019-02-25T20:14:42.632Z,4.70
2019-02-25T20:17:14.201Z,4.70
2019-02-25T20:19:50.203Z,4.80
2019-02-25T20:22:23.217Z,4.90
2019-02-25T20:24:57.321Z,4.90
2019-02-25T20:27:27.688Z,4.90
2019-02-25T20:30:02.649Z,4.90
2019-02-25T20:32:34.228Z,4.90
2019-02-25T20:35:07.178Z,4.90
2019-02-25T20:37:41.752Z,5.00
2019-02-25T20:40:17.054Z,5.00
2019-02-25T20:42:50.219Z,4.90
2019-02-25T20:45:23.231Z,4.90
2019-02-25T20:47:54.498Z,4.90
2019-02-25T20:50:23.801Z,4.90
2019-02-25T20:52:56.013Z,4.90
2019-02-25T20:55:29.364Z,4.90
2019-02-25T20:58:00.937Z,4.90
2019-02-25T21:00:34.867Z,5.00
2019-02-25T21:03:03.349Z,5.00
2019-02-25T21:05:35.593Z,5.00
2019-02-25T21:08:07.320Z,5.00
2019-02-25T21:10:39.272Z,4.90
2019-02-25T21:13:10.869Z,4.90
2019-02-25T21:15:42.909Z,4.80
2019-02-25T21:18:14.506Z,4.80
2019-02-25T21:20:49.322Z,4.80
2019-02-25T21:23:20.817Z,4.80
2019-02-25T21:25:55.431Z,4.80
2019-02-25T21:28:27.079Z,4.80
2019-02-25T21:31:00.998Z,4.80
2019-02-25T21:33:33.512Z,4.80
2019-02-25T21:36:04.424Z,4.70
2019-02-25T21:38:35.287Z,4.70
2019-02-25T21:41:07.471Z,4.60
2019-02-25T21:43:43.387Z,4.60
2019-02-25T21:46:17.898Z,4.60
2019-02-25T21:48:53.136Z,4.50
2019-02-25T21:51:22.001Z,4.60
2019-02-25T21:53:55.578Z,4.70
2019-02-25T21:56:27.380Z,4.80
2019-02-25T21:58:58.325Z,4.70
2019-02-25T22:01:30.036Z,4.90
2019-02-25T22:04:03.354Z,4.90
2019-02-25T22:06:35.062Z,4.80
2019-02-25T22:09:08.822Z,5.00
2019-02-25T22:11:39.765Z,5.10
2019-02-25T22:14:09.410Z,5.10
2019-02-25T22:16:44.322Z,5.20
2019-02-25T22:19:16.505Z,5.10
2019-02-25T22:21:51.575Z,5.10
2019-02-25T22:24:29.151Z,5.20
2019-02-25T22:27:00.062Z,5.30
2019-02-25T22:29:30.976Z,5.30
2019-02-25T22:32:01.926Z,5.20
2019-02-25T22:34:33.962Z,5.30
2019-02-25T22:37:12.392Z,5.50
2019-02-25T22:39:41.462Z,5.40
2019-02-25T22:42:14.643Z,5.40
2019-02-25T22:44:47.945Z,5.40
2019-02-25T22:47:18.982Z,5.50
2019-02-25T22:49:50.363Z,5.50
2019-02-25T22:52:22.162Z,5.60
2019-02-25T22:54:52.348Z,5.60
2019-02-25T22:57:25.700Z,5.60
2019-02-25T22:59:57.623Z,5.60
2019-02-25T23:02:28.760Z,5.60
2019-02-25T23:05:01.939Z,5.60
2019-02-25T23:07:33.941Z,5.60
2019-02-25T23:10:12.554Z,5.40
2019-02-25T23:12:44.214Z,5.30
2019-02-25T23:15:18.283Z,5.30
2019-02-25T23:17:50.394Z,5.50
2019-02-25T23:20:23.603Z,5.70
2019-02-25T23:23:01.227Z,5.60
2019-02-25T23:25:31.982Z,5.60
2019-02-25T23:28:05.538Z,5.70
2019-02-25T23:30:39.087Z,5.50
2019-02-25T23:33:12.101Z,5.40
2019-02-25T23:35:46.594Z,5.40
2019-02-25T23:38:17.684Z,5.40
2019-02-25T23:40:49.138Z,5.30
2019-02-25T23:43:19.360Z,5.40
2019-02-25T23:45:52.374Z,5.40
2019-02-25T23:48:30.198Z,5.40
2019-02-25T23:50:59.622Z,5.50
2019-02-25T23:53:50.881Z,5.40
2019-02-25T23:56:24.961Z,5.30
2019-02-25T23:58:58.018Z,5.20
